sensor_id;sensor_type;location;lat;lon;timestamp;temperature;humidity
7214;DHT22;3648;50.614;13.830;2022-12-10T00:01:38;1.00;1.00
7214;DHT22;3648;50.614;13.830;2022-12-10T00:04:07;1.00;1.00
7214;DHT22;3648;50.614;13.830;2022-12-10T00:06:35;1.10;1.00
7214;DHT22;3648;50.614;13.830;2022-12-10T00:09:04;1.10;1.00
7214;DHT22;3648;50.614;13.830;2022-12-10T00:11:32;1.10;1.00
7214;DHT22;3648;50.614;13.830;2022-12-10T00:13:59;1.10;1.00
7214;DHT22;3648;50.614;13.830;2022-12-10T00:16:27;1.20;1.00
7214;DHT22;3648;50.614;13.830;2022-12-10T00:18:56;1.20;1.00
7214;DHT22;3648;50.614;13.830;2022-12-10T00:21:26;1.20;1.00
7214;DHT22;3648;50.614;13.830;2022-12-10T00:23:54;1.20;1.00
7214;DHT22;3648;50.614;13.830;2022-12-10T00:26:22;1.20;1.00
7214;DHT22;3648;50.614;13.830;2022-12-10T00:28:50;1.20;1.00
7214;DHT22;3648;50.614;13.830;2022-12-10T00:31:18;1.20;1.00
7214;DHT22;3648;50.614;13.830;2022-12-10T00:33:46;1.20;1.00
7214;DHT22;3648;50.614;13.830;2022-12-10T00:36:15;1.20;1.00
7214;DHT22;3648;50.614;13.830;2022-12-10T00:38:44;1.20;1.00
7214;DHT22;3648;50.614;13.830;2022-12-10T00:41:12;1.20;1.00
7214;DHT22;3648;50.614;13.830;2022-12-10T00:43:40;1.10;1.00
7214;DHT22;3648;50.614;13.830;2022-12-10T00:46:07;1.00;1.00
7214;DHT22;3648;50.614;13.830;2022-12-10T00:48:35;1.00;1.00
7214;DHT22;3648;50.614;13.830;2022-12-10T00:51:04;0.90;1.00
7214;DHT22;3648;50.614;13.830;2022-12-10T00:53:32;0.90;1.00
7214;DHT22;3648;50.614;13.830;2022-12-10T00:56:01;0.90;1.00
7214;DHT22;3648;50.614;13.830;2022-12-10T00:58:30;0.90;1.00
7214;DHT22;3648;50.614;13.830;2022-12-10T01:01:07;0.90;1.00
7214;DHT22;3648;50.614;13.830;2022-12-10T01:03:34;0.90;1.00
7214;DHT22;3648;50.614;13.830;2022-12-10T01:06:11;0.80;1.00
7214;DHT22;3648;50.614;13.830;2022-12-10T01:08:38;0.80;1.00
7214;DHT22;3648;50.614;13.830;2022-12-10T01:11:07;0.80;1.00
7214;DHT22;3648;50.614;13.830;2022-12-10T01:13:34;0.80;1.00
7214;DHT22;3648;50.614;13.830;2022-12-10T01:16:02;0.80;1.00
7214;DHT22;3648;50.614;13.830;2022-12-10T01:18:30;0.80;1.00
7214;DHT22;3648;50.614;13.830;2022-12-10T01:21:01;0.80;1.00
7214;DHT22;3648;50.614;13.830;2022-12-10T01:23:28;0.90;1.00
7214;DHT22;3648;50.614;13.830;2022-12-10T01:25:59;0.90;1.00
7214;DHT22;3648;50.614;13.830;2022-12-10T01:28:29;0.90;1.00
7214;DHT22;3648;50.614;13.830;2022-12-10T01:31:00;0.80;1.00
7214;DHT22;3648;50.614;13.830;2022-12-10T01:33:28;0.90;1.00
7214;DHT22;3648;50.614;13.830;2022-12-10T01:35:55;0.80;1.00
7214;DHT22;3648;50.614;13.830;2022-12-10T01:38:22;0.80;1.00
7214;DHT22;3648;50.614;13.830;2022-12-10T01:40:49;0.80;1.00
7214;DHT22;3648;50.614;13.830;2022-12-10T01:43:16;0.80;1.00
7214;DHT22;3648;50.614;13.830;2022-12-10T01:45:44;0.80;1.00
7214;DHT22;3648;50.614;13.830;2022-12-10T01:48:11;0.70;1.00
7214;DHT22;3648;50.614;13.830;2022-12-10T01:50:38;0.70;1.00
7214;DHT22;3648;50.614;13.830;2022-12-10T01:53:05;0.70;1.00
7214;DHT22;3648;50.614;13.830;2022-12-10T01:55:40;0.70;1.00
7214;DHT22;3648;50.614;13.830;2022-12-10T01:58:08;0.70;1.00
7214;DHT22;3648;50.614;13.830;2022-12-10T02:00:41;0.70;1.00
7214;DHT22;3648;50.614;13.830;2022-12-10T02:03:15;0.60;1.00
7214;DHT22;3648;50.614;13.830;2022-12-10T02:05:47;0.60;1.00
7214;DHT22;3648;50.614;13.830;2022-12-10T02:08:21;0.60;1.00
7214;DHT22;3648;50.614;13.830;2022-12-10T02:10:59;0.70;1.00
7214;DHT22;3648;50.614;13.830;2022-12-10T02:13:34;0.70;1.00
7214;DHT22;3648;50.614;13.830;2022-12-10T02:16:08;0.80;1.00
7214;DHT22;3648;50.614;13.830;2022-12-10T02:18:39;0.80;1.00
7214;DHT22;3648;50.614;13.830;2022-12-10T02:21:11;0.80;1.00
7214;DHT22;3648;50.614;13.830;2022-12-10T02:23:41;0.90;1.00
7214;DHT22;3648;50.614;13.830;2022-12-10T02:26:14;0.90;1.00
7214;DHT22;3648;50.614;13.830;2022-12-10T02:28:48;0.90;1.00
7214;DHT22;3648;50.614;13.830;2022-12-10T02:31:21;0.90;1.00
7214;DHT22;3648;50.614;13.830;2022-12-10T02:33:53;0.90;1.00
7214;DHT22;3648;50.614;13.830;2022-12-10T02:36:23;0.90;1.00
7214;DHT22;3648;50.614;13.830;2022-12-10T02:38:52;1.00;1.00
7214;DHT22;3648;50.614;13.830;2022-12-10T02:41:28;1.00;1.00
7214;DHT22;3648;50.614;13.830;2022-12-10T02:43:58;1.00;1.00
7214;DHT22;3648;50.614;13.830;2022-12-10T02:46:28;1.00;1.00
7214;DHT22;3648;50.614;13.830;2022-12-10T02:48:57;1.00;1.00
7214;DHT22;3648;50.614;13.830;2022-12-10T02:51:24;1.00;1.00
7214;DHT22;3648;50.614;13.830;2022-12-10T02:53:58;1.00;1.00
7214;DHT22;3648;50.614;13.830;2022-12-10T02:56:32;1.00;1.00
7214;DHT22;3648;50.614;13.830;2022-12-10T02:59:08;0.90;1.00
7214;DHT22;3648;50.614;13.830;2022-12-10T03:01:42;0.90;1.00
7214;DHT22;3648;50.614;13.830;2022-12-10T03:04:14;0.80;1.00
7214;DHT22;3648;50.614;13.830;2022-12-10T03:06:46;0.80;1.00
7214;DHT22;3648;50.614;13.830;2022-12-10T03:09:20;0.80;1.00
7214;DHT22;3648;50.614;13.830;2022-12-10T03:11:49;0.70;1.00
7214;DHT22;3648;50.614;13.830;2022-12-10T03:14:25;0.70;1.00
7214;DHT22;3648;50.614;13.830;2022-12-10T03:16:56;0.70;1.00
7214;DHT22;3648;50.614;13.830;2022-12-10T03:19:30;0.70;1.00
7214;DHT22;3648;50.614;13.830;2022-12-10T03:21:58;0.70;1.00
7214;DHT22;3648;50.614;13.830;2022-12-10T03:24:27;0.70;1.00
7214;DHT22;3648;50.614;13.830;2022-12-10T03:26:54;0.60;1.00
7214;DHT22;3648;50.614;13.830;2022-12-10T03:29:26;0.70;1.00
7214;DHT22;3648;50.614;13.830;2022-12-10T03:31:57;0.60;1.00
7214;DHT22;3648;50.614;13.830;2022-12-10T03:34:25;0.70;1.00
7214;DHT22;3648;50.614;13.830;2022-12-10T03:36:52;0.70;1.00
7214;DHT22;3648;50.614;13.830;2022-12-10T03:39:20;0.70;1.00
7214;DHT22;3648;50.614;13.830;2022-12-10T03:41:47;0.70;1.00
7214;DHT22;3648;50.614;13.830;2022-12-10T03:44:27;0.80;1.00
7214;DHT22;3648;50.614;13.830;2022-12-10T03:46:55;0.80;1.00
7214;DHT22;3648;50.614;13.830;2022-12-10T03:49:23;0.80;1.00
7214;DHT22;3648;50.614;13.830;2022-12-10T03:51:50;0.80;1.00
7214;DHT22;3648;50.614;13.830;2022-12-10T03:54:17;0.80;1.00
7214;DHT22;3648;50.614;13.830;2022-12-10T03:56:44;0.80;1.00
7214;DHT22;3648;50.614;13.830;2022-12-10T03:59:11;0.80;1.00
7214;DHT22;3648;50.614;13.830;2022-12-10T04:01:38;0.80;1.00
7214;DHT22;3648;50.614;13.830;2022-12-10T04:04:06;0.80;1.00
7214;DHT22;3648;50.614;13.830;2022-12-10T04:06:34;0.80;1.00
7214;DHT22;3648;50.614;13.830;2022-12-10T04:09:01;0.80;1.00
7214;DHT22;3648;50.614;13.830;2022-12-10T04:11:28;0.80;1.00
7214;DHT22;3648;50.614;13.830;2022-12-10T04:13:55;0.80;1.00
7214;DHT22;3648;50.614;13.830;2022-12-10T04:16:44;0.70;1.00
7214;DHT22;3648;50.614;13.830;2022-12-10T04:19:14;0.70;1.00
7214;DHT22;3648;50.614;13.830;2022-12-10T04:21:43;0.70;1.00
7214;DHT22;3648;50.614;13.830;2022-12-10T04:24:29;0.70;1.00
7214;DHT22;3648;50.614;13.830;2022-12-10T04:27:18;0.70;1.00
7214;DHT22;3648;50.614;13.830;2022-12-10T04:29:45;0.80;1.00
7214;DHT22;3648;50.614;13.830;2022-12-10T04:32:12;0.80;1.00
7214;DHT22;3648;50.614;13.830;2022-12-10T04:34:40;0.80;1.00
7214;DHT22;3648;50.614;13.830;2022-12-10T04:37:07;0.80;1.00
7214;DHT22;3648;50.614;13.830;2022-12-10T04:39:37;0.90;1.00
7214;DHT22;3648;50.614;13.830;2022-12-10T04:42:04;0.90;1.00
7214;DHT22;3648;50.614;13.830;2022-12-10T04:44:32;0.90;1.00
7214;DHT22;3648;50.614;13.830;2022-12-10T04:46:59;1.00;1.00
7214;DHT22;3648;50.614;13.830;2022-12-10T04:49:26;0.90;1.00
7214;DHT22;3648;50.614;13.830;2022-12-10T04:51:55;1.00;1.00
7214;DHT22;3648;50.614;13.830;2022-12-10T04:54:23;1.00;1.00
7214;DHT22;3648;50.614;13.830;2022-12-10T04:56:50;1.00;1.00
7214;DHT22;3648;50.614;13.830;2022-12-10T04:59:46;1.00;1.00
7214;DHT22;3648;50.614;13.830;2022-12-10T05:02:13;1.00;1.00
7214;DHT22;3648;50.614;13.830;2022-12-10T05:04:40;1.00;1.00
7214;DHT22;3648;50.614;13.830;2022-12-10T05:07:07;1.00;1.00
7214;DHT22;3648;50.614;13.830;2022-12-10T05:09:34;0.90;1.00
7214;DHT22;3648;50.614;13.830;2022-12-10T05:12:01;0.90;1.00
7214;DHT22;3648;50.614;13.830;2022-12-10T05:14:29;0.90;1.00
7214;DHT22;3648;50.614;13.830;2022-12-10T05:16:57;0.90;1.00
7214;DHT22;3648;50.614;13.830;2022-12-10T05:19:24;0.90;1.00
7214;DHT22;3648;50.614;13.830;2022-12-10T05:21:52;0.80;1.00
7214;DHT22;3648;50.614;13.830;2022-12-10T05:24:37;0.80;1.00
7214;DHT22;3648;50.614;13.830;2022-12-10T05:27:04;0.80;1.00
7214;DHT22;3648;50.614;13.830;2022-12-10T05:29:32;0.70;1.00
7214;DHT22;3648;50.614;13.830;2022-12-10T05:32:02;0.70;1.00
7214;DHT22;3648;50.614;13.830;2022-12-10T05:34:29;0.70;1.00
7214;DHT22;3648;50.614;13.830;2022-12-10T05:36:56;0.70;1.00
7214;DHT22;3648;50.614;13.830;2022-12-10T05:39:24;0.60;1.00
7214;DHT22;3648;50.614;13.830;2022-12-10T05:41:51;0.60;1.00
7214;DHT22;3648;50.614;13.830;2022-12-10T05:44:18;0.60;1.00
7214;DHT22;3648;50.614;13.830;2022-12-10T05:46:45;0.60;1.00
7214;DHT22;3648;50.614;13.830;2022-12-10T05:49:13;0.60;1.00
7214;DHT22;3648;50.614;13.830;2022-12-10T05:51:41;0.60;1.00
7214;DHT22;3648;50.614;13.830;2022-12-10T05:54:09;0.60;1.00
7214;DHT22;3648;50.614;13.830;2022-12-10T05:56:37;0.60;1.00
7214;DHT22;3648;50.614;13.830;2022-12-10T05:59:05;0.70;1.00
7214;DHT22;3648;50.614;13.830;2022-12-10T06:01:33;0.70;1.00
7214;DHT22;3648;50.614;13.830;2022-12-10T06:04:03;0.70;1.00
7214;DHT22;3648;50.614;13.830;2022-12-10T06:06:34;0.70;1.00
7214;DHT22;3648;50.614;13.830;2022-12-10T06:09:03;0.70;1.00
7214;DHT22;3648;50.614;13.830;2022-12-10T06:11:30;0.70;1.00
7214;DHT22;3648;50.614;13.830;2022-12-10T06:13:57;0.70;1.00
7214;DHT22;3648;50.614;13.830;2022-12-10T06:16:26;0.70;1.00
7214;DHT22;3648;50.614;13.830;2022-12-10T06:18:54;0.70;1.00
7214;DHT22;3648;50.614;13.830;2022-12-10T06:21:21;0.70;1.00
7214;DHT22;3648;50.614;13.830;2022-12-10T06:23:51;0.70;1.00
7214;DHT22;3648;50.614;13.830;2022-12-10T06:26:19;0.70;1.00
7214;DHT22;3648;50.614;13.830;2022-12-10T06:28:47;0.70;1.00
7214;DHT22;3648;50.614;13.830;2022-12-10T06:31:15;0.70;1.00
7214;DHT22;3648;50.614;13.830;2022-12-10T06:33:42;0.70;1.00
7214;DHT22;3648;50.614;13.830;2022-12-10T06:36:11;0.70;1.00
7214;DHT22;3648;50.614;13.830;2022-12-10T06:38:39;0.70;1.00
7214;DHT22;3648;50.614;13.830;2022-12-10T06:41:10;0.70;1.00
7214;DHT22;3648;50.614;13.830;2022-12-10T06:43:38;0.70;1.00
7214;DHT22;3648;50.614;13.830;2022-12-10T06:46:06;0.70;1.00
7214;DHT22;3648;50.614;13.830;2022-12-10T06:48:33;0.70;1.00
7214;DHT22;3648;50.614;13.830;2022-12-10T06:51:01;0.70;1.00
7214;DHT22;3648;50.614;13.830;2022-12-10T06:53:28;0.70;1.00
7214;DHT22;3648;50.614;13.830;2022-12-10T06:55:57;0.70;1.00
7214;DHT22;3648;50.614;13.830;2022-12-10T06:58:26;0.70;1.00
7214;DHT22;3648;50.614;13.830;2022-12-10T07:00:53;0.70;1.00
7214;DHT22;3648;50.614;13.830;2022-12-10T07:03:20;0.70;1.00
7214;DHT22;3648;50.614;13.830;2022-12-10T07:05:47;0.70;1.00
7214;DHT22;3648;50.614;13.830;2022-12-10T07:08:15;0.70;1.00
7214;DHT22;3648;50.614;13.830;2022-12-10T07:10:43;0.70;1.00
7214;DHT22;3648;50.614;13.830;2022-12-10T07:13:10;0.70;1.00
7214;DHT22;3648;50.614;13.830;2022-12-10T07:15:39;0.70;1.00
7214;DHT22;3648;50.614;13.830;2022-12-10T07:18:06;0.60;1.00
7214;DHT22;3648;50.614;13.830;2022-12-10T07:20:33;0.70;1.00
7214;DHT22;3648;50.614;13.830;2022-12-10T07:23:00;0.70;1.00
7214;DHT22;3648;50.614;13.830;2022-12-10T07:25:28;0.60;1.00
7214;DHT22;3648;50.614;13.830;2022-12-10T07:27:55;0.60;1.00
7214;DHT22;3648;50.614;13.830;2022-12-10T07:30:23;0.70;1.00
7214;DHT22;3648;50.614;13.830;2022-12-10T07:32:51;0.70;1.00
7214;DHT22;3648;50.614;13.830;2022-12-10T07:35:18;0.70;1.00
7214;DHT22;3648;50.614;13.830;2022-12-10T07:37:46;0.70;1.00
7214;DHT22;3648;50.614;13.830;2022-12-10T07:40:13;0.70;1.00
7214;DHT22;3648;50.614;13.830;2022-12-10T07:42:40;0.70;1.00
7214;DHT22;3648;50.614;13.830;2022-12-10T07:45:08;0.70;1.00
7214;DHT22;3648;50.614;13.830;2022-12-10T07:47:35;0.70;1.00
7214;DHT22;3648;50.614;13.830;2022-12-10T07:50:05;0.80;1.00
7214;DHT22;3648;50.614;13.830;2022-12-10T07:52:32;0.80;1.00
7214;DHT22;3648;50.614;13.830;2022-12-10T07:54:59;0.80;1.00
7214;DHT22;3648;50.614;13.830;2022-12-10T07:57:28;0.80;1.00
7214;DHT22;3648;50.614;13.830;2022-12-10T07:59:55;0.80;1.00
7214;DHT22;3648;50.614;13.830;2022-12-10T08:02:22;0.80;1.00
7214;DHT22;3648;50.614;13.830;2022-12-10T08:04:50;0.80;1.00
7214;DHT22;3648;50.614;13.830;2022-12-10T08:07:18;0.90;1.00
7214;DHT22;3648;50.614;13.830;2022-12-10T08:09:45;0.90;1.00
7214;DHT22;3648;50.614;13.830;2022-12-10T08:12:13;0.90;1.00
7214;DHT22;3648;50.614;13.830;2022-12-10T08:14:40;1.00;1.00
7214;DHT22;3648;50.614;13.830;2022-12-10T08:17:07;1.00;1.00
7214;DHT22;3648;50.614;13.830;2022-12-10T08:19:34;1.00;1.00
7214;DHT22;3648;50.614;13.830;2022-12-10T08:22:01;1.10;1.00
7214;DHT22;3648;50.614;13.830;2022-12-10T08:24:30;1.10;1.00
7214;DHT22;3648;50.614;13.830;2022-12-10T08:26:57;1.10;1.00
7214;DHT22;3648;50.614;13.830;2022-12-10T08:29:24;1.10;1.00
7214;DHT22;3648;50.614;13.830;2022-12-10T08:31:51;1.10;1.00
7214;DHT22;3648;50.614;13.830;2022-12-10T08:34:19;1.20;1.00
7214;DHT22;3648;50.614;13.830;2022-12-10T08:36:49;1.20;1.00
7214;DHT22;3648;50.614;13.830;2022-12-10T08:39:18;1.20;1.00
7214;DHT22;3648;50.614;13.830;2022-12-10T08:41:47;1.30;1.00
7214;DHT22;3648;50.614;13.830;2022-12-10T08:44:14;1.30;1.00
7214;DHT22;3648;50.614;13.830;2022-12-10T08:46:41;1.30;1.00
7214;DHT22;3648;50.614;13.830;2022-12-10T08:49:08;1.30;1.00
7214;DHT22;3648;50.614;13.830;2022-12-10T08:51:35;1.40;1.00
7214;DHT22;3648;50.614;13.830;2022-12-10T08:54:03;1.40;1.00
7214;DHT22;3648;50.614;13.830;2022-12-10T08:56:30;1.40;1.00
7214;DHT22;3648;50.614;13.830;2022-12-10T08:58:59;1.40;1.00
7214;DHT22;3648;50.614;13.830;2022-12-10T09:01:26;1.40;1.00
7214;DHT22;3648;50.614;13.830;2022-12-10T09:03:53;1.30;1.00
7214;DHT22;3648;50.614;13.830;2022-12-10T09:06:22;1.30;1.00
7214;DHT22;3648;50.614;13.830;2022-12-10T09:08:51;1.30;1.00
7214;DHT22;3648;50.614;13.830;2022-12-10T09:11:19;1.30;1.00
7214;DHT22;3648;50.614;13.830;2022-12-10T09:13:47;1.20;1.00
7214;DHT22;3648;50.614;13.830;2022-12-10T09:16:15;1.20;1.00
7214;DHT22;3648;50.614;13.830;2022-12-10T09:18:42;1.20;1.00
7214;DHT22;3648;50.614;13.830;2022-12-10T09:21:12;1.20;1.00
7214;DHT22;3648;50.614;13.830;2022-12-10T09:23:40;1.20;1.00
7214;DHT22;3648;50.614;13.830;2022-12-10T09:26:08;1.20;1.00
7214;DHT22;3648;50.614;13.830;2022-12-10T09:28:36;1.30;1.00
7214;DHT22;3648;50.614;13.830;2022-12-10T09:31:04;1.30;1.00
7214;DHT22;3648;50.614;13.830;2022-12-10T09:33:33;1.30;1.00
7214;DHT22;3648;50.614;13.830;2022-12-10T09:36:02;1.40;1.00
7214;DHT22;3648;50.614;13.830;2022-12-10T09:38:29;1.40;1.00
7214;DHT22;3648;50.614;13.830;2022-12-10T09:41:00;1.40;1.00
7214;DHT22;3648;50.614;13.830;2022-12-10T09:43:39;1.50;1.00
7214;DHT22;3648;50.614;13.830;2022-12-10T09:46:16;1.50;1.00
7214;DHT22;3648;50.614;13.830;2022-12-10T09:48:55;1.60;1.00
7214;DHT22;3648;50.614;13.830;2022-12-10T09:51:25;1.70;1.00
7214;DHT22;3648;50.614;13.830;2022-12-10T09:53:56;1.70;1.00
7214;DHT22;3648;50.614;13.830;2022-12-10T09:56:27;1.70;1.00
7214;DHT22;3648;50.614;13.830;2022-12-10T09:58:56;1.80;1.00
7214;DHT22;3648;50.614;13.830;2022-12-10T10:01:28;1.80;1.00
7214;DHT22;3648;50.614;13.830;2022-12-10T10:04:00;1.80;1.00
7214;DHT22;3648;50.614;13.830;2022-12-10T10:06:29;1.80;1.00
7214;DHT22;3648;50.614;13.830;2022-12-10T10:08:59;1.80;1.00
7214;DHT22;3648;50.614;13.830;2022-12-10T10:11:30;1.80;1.00
7214;DHT22;3648;50.614;13.830;2022-12-10T10:14:01;1.80;1.00
7214;DHT22;3648;50.614;13.830;2022-12-10T10:16:33;1.80;1.00
7214;DHT22;3648;50.614;13.830;2022-12-10T10:19:04;1.90;1.00
7214;DHT22;3648;50.614;13.830;2022-12-10T10:21:34;1.90;1.00
7214;DHT22;3648;50.614;13.830;2022-12-10T10:24:03;2.00;1.00
7214;DHT22;3648;50.614;13.830;2022-12-10T10:26:32;2.10;1.00
7214;DHT22;3648;50.614;13.830;2022-12-10T10:29:01;2.20;1.00
7214;DHT22;3648;50.614;13.830;2022-12-10T10:31:31;2.20;1.00
7214;DHT22;3648;50.614;13.830;2022-12-10T10:34:02;2.30;1.00
7214;DHT22;3648;50.614;13.830;2022-12-10T10:36:31;2.40;1.00
7214;DHT22;3648;50.614;13.830;2022-12-10T10:39:08;2.40;1.00
7214;DHT22;3648;50.614;13.830;2022-12-10T10:41:36;2.40;1.00
7214;DHT22;3648;50.614;13.830;2022-12-10T10:44:13;2.50;1.00
7214;DHT22;3648;50.614;13.830;2022-12-10T10:46:41;2.50;1.00
7214;DHT22;3648;50.614;13.830;2022-12-10T10:49:21;2.60;1.00
7214;DHT22;3648;50.614;13.830;2022-12-10T10:51:50;2.50;1.00
7214;DHT22;3648;50.614;13.830;2022-12-10T10:54:32;2.50;1.00
7214;DHT22;3648;50.614;13.830;2022-12-10T10:57:03;2.60;1.00
7214;DHT22;3648;50.614;13.830;2022-12-10T10:59:33;2.70;1.00
7214;DHT22;3648;50.614;13.830;2022-12-10T11:02:04;2.80;1.00
7214;DHT22;3648;50.614;13.830;2022-12-10T11:04:44;2.80;1.00
7214;DHT22;3648;50.614;13.830;2022-12-10T11:07:19;2.70;1.00
7214;DHT22;3648;50.614;13.830;2022-12-10T11:09:48;2.70;1.00
7214;DHT22;3648;50.614;13.830;2022-12-10T11:12:34;2.70;1.00
7214;DHT22;3648;50.614;13.830;2022-12-10T11:15:03;2.70;1.00
7214;DHT22;3648;50.614;13.830;2022-12-10T11:17:46;2.80;1.00
7214;DHT22;3648;50.614;13.830;2022-12-10T11:20:18;2.90;1.00
7214;DHT22;3648;50.614;13.830;2022-12-10T11:22:50;2.90;1.00
7214;DHT22;3648;50.614;13.830;2022-12-10T11:25:18;3.00;1.00
7214;DHT22;3648;50.614;13.830;2022-12-10T11:27:52;3.00;1.00
7214;DHT22;3648;50.614;13.830;2022-12-10T11:30:23;3.10;1.00
7214;DHT22;3648;50.614;13.830;2022-12-10T11:33:10;3.10;1.00
7214;DHT22;3648;50.614;13.830;2022-12-10T11:35:49;3.10;1.00
7214;DHT22;3648;50.614;13.830;2022-12-10T11:38:24;3.00;1.00
7214;DHT22;3648;50.614;13.830;2022-12-10T11:40:58;2.90;1.00
7214;DHT22;3648;50.614;13.830;2022-12-10T11:43:47;2.90;1.00
7214;DHT22;3648;50.614;13.830;2022-12-10T11:46:38;2.80;1.00
7214;DHT22;3648;50.614;13.830;2022-12-10T11:49:20;2.80;1.00
7214;DHT22;3648;50.614;13.830;2022-12-10T11:51:56;2.80;1.00
7214;DHT22;3648;50.614;13.830;2022-12-10T11:54:47;2.80;1.00
7214;DHT22;3648;50.614;13.830;2022-12-10T11:57:22;2.80;1.00
7214;DHT22;3648;50.614;13.830;2022-12-10T11:59:55;2.80;1.00
7214;DHT22;3648;50.614;13.830;2022-12-10T12:02:35;2.70;1.00
7214;DHT22;3648;50.614;13.830;2022-12-10T12:05:24;2.70;1.00
7214;DHT22;3648;50.614;13.830;2022-12-10T12:08:03;2.70;1.00
7214;DHT22;3648;50.614;13.830;2022-12-10T12:11:00;2.70;1.00
7214;DHT22;3648;50.614;13.830;2022-12-10T12:13:32;2.70;1.00
7214;DHT22;3648;50.614;13.830;2022-12-10T12:16:04;2.60;1.00
7214;DHT22;3648;50.614;13.830;2022-12-10T12:18:42;2.60;1.00
7214;DHT22;3648;50.614;13.830;2022-12-10T12:21:14;2.60;1.00
7214;DHT22;3648;50.614;13.830;2022-12-10T12:23:49;2.60;1.00
7214;DHT22;3648;50.614;13.830;2022-12-10T12:26:23;2.60;1.00
7214;DHT22;3648;50.614;13.830;2022-12-10T12:28:54;2.60;1.00
7214;DHT22;3648;50.614;13.830;2022-12-10T12:31:29;2.70;1.00
7214;DHT22;3648;50.614;13.830;2022-12-10T12:34:01;2.70;1.00
7214;DHT22;3648;50.614;13.830;2022-12-10T12:36:31;2.60;1.00
7214;DHT22;3648;50.614;13.830;2022-12-10T12:39:05;2.70;1.00
7214;DHT22;3648;50.614;13.830;2022-12-10T12:41:44;2.70;1.00
7214;DHT22;3648;50.614;13.830;2022-12-10T12:44:19;2.70;1.00
7214;DHT22;3648;50.614;13.830;2022-12-10T12:46:50;2.70;1.00
7214;DHT22;3648;50.614;13.830;2022-12-10T12:49:22;2.70;1.00
7214;DHT22;3648;50.614;13.830;2022-12-10T12:51:54;2.70;1.00
7214;DHT22;3648;50.614;13.830;2022-12-10T12:54:24;2.70;1.00
7214;DHT22;3648;50.614;13.830;2022-12-10T12:56:59;2.70;1.00
7214;DHT22;3648;50.614;13.830;2022-12-10T12:59:49;2.70;1.00
7214;DHT22;3648;50.614;13.830;2022-12-10T13:02:26;2.60;1.00
7214;DHT22;3648;50.614;13.830;2022-12-10T13:04:53;2.60;1.00
7214;DHT22;3648;50.614;13.830;2022-12-10T13:07:31;2.60;1.00
7214;DHT22;3648;50.614;13.830;2022-12-10T13:10:25;2.60;1.00
7214;DHT22;3648;50.614;13.830;2022-12-10T13:13:15;2.60;1.00
7214;DHT22;3648;50.614;13.830;2022-12-10T13:15:43;2.50;1.00
7214;DHT22;3648;50.614;13.830;2022-12-10T13:18:23;2.60;1.00
7214;DHT22;3648;50.614;13.830;2022-12-10T13:21:16;2.50;1.00
7214;DHT22;3648;50.614;13.830;2022-12-10T13:23:49;2.50;1.00
7214;DHT22;3648;50.614;13.830;2022-12-10T13:26:26;2.50;1.00
7214;DHT22;3648;50.614;13.830;2022-12-10T13:28:54;2.50;1.00
7214;DHT22;3648;50.614;13.830;2022-12-10T13:31:37;2.50;1.00
7214;DHT22;3648;50.614;13.830;2022-12-10T13:34:23;2.50;1.00
7214;DHT22;3648;50.614;13.830;2022-12-10T13:37:12;2.50;1.00
7214;DHT22;3648;50.614;13.830;2022-12-10T13:39:47;2.50;1.00
7214;DHT22;3648;50.614;13.830;2022-12-10T13:42:31;2.40;1.00
7214;DHT22;3648;50.614;13.830;2022-12-10T13:45:33;2.40;1.00
7214;DHT22;3648;50.614;13.830;2022-12-10T13:48:31;2.50;1.00
7214;DHT22;3648;50.614;13.830;2022-12-10T13:51:26;2.40;1.00
7214;DHT22;3648;50.614;13.830;2022-12-10T13:54:15;2.40;1.00
7214;DHT22;3648;50.614;13.830;2022-12-10T13:56:48;2.40;1.00
7214;DHT22;3648;50.614;13.830;2022-12-10T13:59:30;2.30;1.00
7214;DHT22;3648;50.614;13.830;2022-12-10T14:02:21;2.30;1.00
7214;DHT22;3648;50.614;13.830;2022-12-10T14:05:07;2.20;1.00
7214;DHT22;3648;50.614;13.830;2022-12-10T14:07:44;2.20;1.00
7214;DHT22;3648;50.614;13.830;2022-12-10T14:10:15;2.10;1.00
7214;DHT22;3648;50.614;13.830;2022-12-10T14:12:44;2.10;1.00
7214;DHT22;3648;50.614;13.830;2022-12-10T14:15:19;2.10;1.00
7214;DHT22;3648;50.614;13.830;2022-12-10T14:17:50;2.10;1.00
7214;DHT22;3648;50.614;13.830;2022-12-10T14:20:19;2.00;1.00
7214;DHT22;3648;50.614;13.830;2022-12-10T14:22:51;2.00;1.00
7214;DHT22;3648;50.614;13.830;2022-12-10T14:25:21;1.90;1.00
7214;DHT22;3648;50.614;13.830;2022-12-10T14:27:50;1.90;1.00
7214;DHT22;3648;50.614;13.830;2022-12-10T14:30:20;1.80;1.00
7214;DHT22;3648;50.614;13.830;2022-12-10T14:32:48;1.70;1.00
7214;DHT22;3648;50.614;13.830;2022-12-10T14:35:19;1.70;1.00
7214;DHT22;3648;50.614;13.830;2022-12-10T14:37:48;1.60;1.00
7214;DHT22;3648;50.614;13.830;2022-12-10T14:40:19;1.70;1.00
7214;DHT22;3648;50.614;13.830;2022-12-10T14:42:49;1.60;1.00
7214;DHT22;3648;50.614;13.830;2022-12-10T14:45:18;1.50;1.00
7214;DHT22;3648;50.614;13.830;2022-12-10T14:47:47;1.60;1.00
7214;DHT22;3648;50.614;13.830;2022-12-10T14:50:16;1.50;1.00
7214;DHT22;3648;50.614;13.830;2022-12-10T14:52:45;1.50;1.00
7214;DHT22;3648;50.614;13.830;2022-12-10T14:55:18;1.60;1.00
7214;DHT22;3648;50.614;13.830;2022-12-10T14:57:49;1.50;1.00
7214;DHT22;3648;50.614;13.830;2022-12-10T15:00:21;1.50;1.00
7214;DHT22;3648;50.614;13.830;2022-12-10T15:02:52;1.50;1.00
7214;DHT22;3648;50.614;13.830;2022-12-10T15:05:23;1.60;1.00
7214;DHT22;3648;50.614;13.830;2022-12-10T15:07:54;1.60;1.00
7214;DHT22;3648;50.614;13.830;2022-12-10T15:10:24;1.60;1.00
7214;DHT22;3648;50.614;13.830;2022-12-10T15:12:53;1.60;1.00
7214;DHT22;3648;50.614;13.830;2022-12-10T15:15:26;1.60;1.00
7214;DHT22;3648;50.614;13.830;2022-12-10T15:18:00;1.60;1.00
7214;DHT22;3648;50.614;13.830;2022-12-10T15:20:30;1.60;1.00
7214;DHT22;3648;50.614;13.830;2022-12-10T15:23:11;1.60;1.00
7214;DHT22;3648;50.614;13.830;2022-12-10T15:25:45;1.60;1.00
7214;DHT22;3648;50.614;13.830;2022-12-10T15:28:23;1.60;1.00
7214;DHT22;3648;50.614;13.830;2022-12-10T15:30:56;1.60;1.00
7214;DHT22;3648;50.614;13.830;2022-12-10T15:33:36;1.60;1.00
7214;DHT22;3648;50.614;13.830;2022-12-10T15:36:04;1.60;1.00
7214;DHT22;3648;50.614;13.830;2022-12-10T15:38:31;1.60;1.00
7214;DHT22;3648;50.614;13.830;2022-12-10T15:43:51;1.50;1.00
7214;DHT22;3648;50.614;13.830;2022-12-10T15:46:24;1.50;1.00
7214;DHT22;3648;50.614;13.830;2022-12-10T15:48:52;1.40;1.00
7214;DHT22;3648;50.614;13.830;2022-12-10T15:51:19;1.30;1.00
7214;DHT22;3648;50.614;13.830;2022-12-10T15:53:46;1.40;1.00
7214;DHT22;3648;50.614;13.830;2022-12-10T15:56:14;1.40;1.00
7214;DHT22;3648;50.614;13.830;2022-12-10T15:58:41;1.30;1.00
7214;DHT22;3648;50.614;13.830;2022-12-10T16:01:09;1.30;1.00
7214;DHT22;3648;50.614;13.830;2022-12-10T16:03:42;1.30;1.00
7214;DHT22;3648;50.614;13.830;2022-12-10T16:06:10;1.30;1.00
7214;DHT22;3648;50.614;13.830;2022-12-10T16:08:37;1.20;1.00
7214;DHT22;3648;50.614;13.830;2022-12-10T16:11:12;1.20;1.00
7214;DHT22;3648;50.614;13.830;2022-12-10T16:13:46;1.20;1.00
7214;DHT22;3648;50.614;13.830;2022-12-10T16:16:14;1.20;1.00
7214;DHT22;3648;50.614;13.830;2022-12-10T16:18:42;1.20;1.00
7214;DHT22;3648;50.614;13.830;2022-12-10T16:21:10;1.20;1.00
7214;DHT22;3648;50.614;13.830;2022-12-10T16:23:37;1.30;1.00
7214;DHT22;3648;50.614;13.830;2022-12-10T16:26:13;1.20;1.00
7214;DHT22;3648;50.614;13.830;2022-12-10T16:28:42;1.20;1.00
7214;DHT22;3648;50.614;13.830;2022-12-10T16:31:12;1.20;1.00
7214;DHT22;3648;50.614;13.830;2022-12-10T16:33:42;1.20;1.00
7214;DHT22;3648;50.614;13.830;2022-12-10T16:36:10;1.20;1.00
7214;DHT22;3648;50.614;13.830;2022-12-10T16:38:38;1.20;1.00
7214;DHT22;3648;50.614;13.830;2022-12-10T16:41:15;1.30;1.00
7214;DHT22;3648;50.614;13.830;2022-12-10T16:43:42;1.20;1.00
7214;DHT22;3648;50.614;13.830;2022-12-10T16:46:10;1.20;1.00